Accord, New York
Current Conditions -  °F | °C
As of 9:54 AM on Friday 24 Oct 2014 (Local Time) from KMGJ Reporting Station
Few Clouds Few Clouds  
Wind Chill: 54°   Ceiling: Unl
Heat Index: 54°   Visibility: 10mi
Dew Point: 42°   Wind: 12mph
Humidity: 64%   Direction: 330°NNW
Pressure: 29.82"   Gusts: NA
Location:  41.79°N, 74.23°W
Report Text: KMGJ 241354Z AUTO 33010KT 10SM FEW120 12/06 A2982 RMK AO2 SLP097 T01220056 TSNO
Loading
Personal Weather Stations






























Interactive Weather Map
Tropical Storm Tracking
New forecast layout! Learn more

10-Day Weather Forecast

Advertisements
Track Severe Weather on mobile